sensor_id;sensor_type;location;lat;lon;timestamp;P1;durP1;ratioP1;P2;durP2;ratioP2
61911;SDS011;49973;52.084;5.412;2023-04-08T00:00:57;117.27;;;18.90;;
61911;SDS011;49973;52.084;5.412;2023-04-08T00:03:26;57.73;;;14.70;;
61911;SDS011;49973;52.084;5.412;2023-04-08T00:05:55;44.70;;;14.03;;
61911;SDS011;49973;52.084;5.412;2023-04-08T00:08:23;109.37;;;17.53;;
61911;SDS011;49973;52.084;5.412;2023-04-08T00:10:52;200.53;;;21.27;;
61911;SDS011;49973;52.084;5.412;2023-04-08T00:13:20;88.27;;;17.63;;
61911;SDS011;49973;52.084;5.412;2023-04-08T00:15:49;202.93;;;23.37;;
61911;SDS011;49973;52.084;5.412;2023-04-08T00:18:19;80.17;;;16.70;;
61911;SDS011;49973;52.084;5.412;2023-04-08T00:20:47;89.17;;;17.23;;
61911;SDS011;49973;52.084;5.412;2023-04-08T00:23:16;119.60;;;20.13;;
61911;SDS011;49973;52.084;5.412;2023-04-08T00:25:47;228.37;;;25.73;;
61911;SDS011;49973;52.084;5.412;2023-04-08T00:28:15;130.97;;;20.33;;
61911;SDS011;49973;52.084;5.412;2023-04-08T00:30:44;179.17;;;22.07;;
61911;SDS011;49973;52.084;5.412;2023-04-08T00:33:12;108.50;;;20.20;;
61911;SDS011;49973;52.084;5.412;2023-04-08T00:35:43;226.23;;;22.87;;
61911;SDS011;49973;52.084;5.412;2023-04-08T00:38:12;244.03;;;25.37;;
61911;SDS011;49973;52.084;5.412;2023-04-08T00:40:41;171.60;;;22.73;;
61911;SDS011;49973;52.084;5.412;2023-04-08T00:43:10;280.80;;;25.90;;
61911;SDS011;49973;52.084;5.412;2023-04-08T00:45:38;289.13;;;24.70;;
61911;SDS011;49973;52.084;5.412;2023-04-08T00:48:07;414.47;;;34.17;;
61911;SDS011;49973;52.084;5.412;2023-04-08T00:50:36;236.63;;;28.53;;
61911;SDS011;49973;52.084;5.412;2023-04-08T00:53:06;456.57;;;32.90;;
61911;SDS011;49973;52.084;5.412;2023-04-08T00:55:34;310.70;;;24.50;;
61911;SDS011;49973;52.084;5.412;2023-04-08T00:58:03;443.03;;;29.50;;
61911;SDS011;49973;52.084;5.412;2023-04-08T01:00:31;317.00;;;28.27;;
61911;SDS011;49973;52.084;5.412;2023-04-08T01:03:04;276.20;;;27.57;;
61911;SDS011;49973;52.084;5.412;2023-04-08T01:05:38;318.87;;;26.40;;
61911;SDS011;49973;52.084;5.412;2023-04-08T01:08:17;141.23;;;19.23;;
61911;SDS011;49973;52.084;5.412;2023-04-08T01:10:46;222.60;;;22.50;;
61911;SDS011;49973;52.084;5.412;2023-04-08T01:13:18;264.67;;;22.47;;
61911;SDS011;49973;52.084;5.412;2023-04-08T01:15:50;334.40;;;27.03;;
61911;SDS011;49973;52.084;5.412;2023-04-08T01:18:21;162.23;;;17.67;;
61911;SDS011;49973;52.084;5.412;2023-04-08T01:20:51;176.33;;;18.83;;
61911;SDS011;49973;52.084;5.412;2023-04-08T01:23:24;232.57;;;20.13;;
61911;SDS011;49973;52.084;5.412;2023-04-08T01:26:01;322.80;;;25.20;;
61911;SDS011;49973;52.084;5.412;2023-04-08T01:28:30;198.07;;;20.80;;
61911;SDS011;49973;52.084;5.412;2023-04-08T01:31:01;316.90;;;29.97;;
61911;SDS011;49973;52.084;5.412;2023-04-08T01:33:30;199.27;;;21.93;;
61911;SDS011;49973;52.084;5.412;2023-04-08T01:36:00;222.53;;;21.37;;
61911;SDS011;49973;52.084;5.412;2023-04-08T01:38:30;330.00;;;28.30;;
61911;SDS011;49973;52.084;5.412;2023-04-08T01:41:01;348.10;;;32.07;;
61911;SDS011;49973;52.084;5.412;2023-04-08T01:43:32;162.83;;;21.00;;
61911;SDS011;49973;52.084;5.412;2023-04-08T01:46:03;437.83;;;28.83;;
61911;SDS011;49973;52.084;5.412;2023-04-08T01:48:35;237.60;;;24.63;;
61911;SDS011;49973;52.084;5.412;2023-04-08T01:51:04;314.63;;;28.03;;
61911;SDS011;49973;52.084;5.412;2023-04-08T01:53:35;269.80;;;21.37;;
61911;SDS011;49973;52.084;5.412;2023-04-08T01:56:06;236.50;;;20.67;;
61911;SDS011;49973;52.084;5.412;2023-04-08T01:58:41;295.07;;;23.17;;
61911;SDS011;49973;52.084;5.412;2023-04-08T02:01:14;188.03;;;19.10;;
61911;SDS011;49973;52.084;5.412;2023-04-08T02:03:48;207.10;;;21.33;;
61911;SDS011;49973;52.084;5.412;2023-04-08T02:06:18;189.83;;;18.50;;
61911;SDS011;49973;52.084;5.412;2023-04-08T02:08:47;338.10;;;28.00;;
61911;SDS011;49973;52.084;5.412;2023-04-08T02:11:17;296.57;;;24.70;;
61911;SDS011;49973;52.084;5.412;2023-04-08T02:13:47;222.77;;;23.10;;
61911;SDS011;49973;52.084;5.412;2023-04-08T02:16:17;326.20;;;27.27;;
61911;SDS011;49973;52.084;5.412;2023-04-08T02:18:52;284.37;;;25.17;;
61911;SDS011;49973;52.084;5.412;2023-04-08T02:21:25;338.10;;;29.80;;
61911;SDS011;49973;52.084;5.412;2023-04-08T02:24:00;234.07;;;24.30;;
61911;SDS011;49973;52.084;5.412;2023-04-08T02:26:34;294.93;;;25.43;;
61911;SDS011;49973;52.084;5.412;2023-04-08T02:29:04;302.77;;;27.37;;
61911;SDS011;49973;52.084;5.412;2023-04-08T02:31:36;374.17;;;32.03;;
61911;SDS011;49973;52.084;5.412;2023-04-08T02:34:07;209.97;;;22.63;;
61911;SDS011;49973;52.084;5.412;2023-04-08T02:36:37;133.23;;;18.03;;
61911;SDS011;49973;52.084;5.412;2023-04-08T02:39:06;185.20;;;17.27;;
61911;SDS011;49973;52.084;5.412;2023-04-08T02:41:36;287.90;;;21.30;;
61911;SDS011;49973;52.084;5.412;2023-04-08T02:44:05;152.73;;;17.90;;
61911;SDS011;49973;52.084;5.412;2023-04-08T02:46:39;157.77;;;16.57;;
61911;SDS011;49973;52.084;5.412;2023-04-08T02:49:07;212.73;;;19.87;;
61911;SDS011;49973;52.084;5.412;2023-04-08T02:51:36;217.10;;;17.97;;
61911;SDS011;49973;52.084;5.412;2023-04-08T02:54:04;152.57;;;19.37;;
61911;SDS011;49973;52.084;5.412;2023-04-08T02:56:33;178.30;;;18.43;;
61911;SDS011;49973;52.084;5.412;2023-04-08T02:59:03;259.50;;;22.37;;
61911;SDS011;49973;52.084;5.412;2023-04-08T03:01:32;218.53;;;21.20;;
61911;SDS011;49973;52.084;5.412;2023-04-08T03:04:01;339.13;;;25.07;;
61911;SDS011;49973;52.084;5.412;2023-04-08T03:06:29;239.73;;;22.87;;
61911;SDS011;49973;52.084;5.412;2023-04-08T03:08:58;201.30;;;21.97;;
61911;SDS011;49973;52.084;5.412;2023-04-08T03:11:27;160.67;;;17.57;;
61911;SDS011;49973;52.084;5.412;2023-04-08T03:13:55;264.73;;;24.00;;
61911;SDS011;49973;52.084;5.412;2023-04-08T03:16:25;231.33;;;22.10;;
61911;SDS011;49973;52.084;5.412;2023-04-08T03:18:54;259.63;;;20.97;;
61911;SDS011;49973;52.084;5.412;2023-04-08T03:21:22;213.53;;;21.23;;
61911;SDS011;49973;52.084;5.412;2023-04-08T03:23:52;155.60;;;16.50;;
61911;SDS011;49973;52.084;5.412;2023-04-08T03:26:21;222.60;;;19.83;;
61911;SDS011;49973;52.084;5.412;2023-04-08T03:28:49;164.13;;;21.50;;
61911;SDS011;49973;52.084;5.412;2023-04-08T03:31:19;208.83;;;19.10;;
61911;SDS011;49973;52.084;5.412;2023-04-08T03:33:49;160.70;;;17.97;;
61911;SDS011;49973;52.084;5.412;2023-04-08T03:36:18;101.70;;;15.10;;
61911;SDS011;49973;52.084;5.412;2023-04-08T03:38:47;217.37;;;19.67;;
61911;SDS011;49973;52.084;5.412;2023-04-08T03:41:15;244.73;;;22.90;;
61911;SDS011;49973;52.084;5.412;2023-04-08T03:43:44;109.87;;;17.43;;
61911;SDS011;49973;52.084;5.412;2023-04-08T03:46:12;189.97;;;17.80;;
61911;SDS011;49973;52.084;5.412;2023-04-08T03:48:41;280.83;;;26.80;;
61911;SDS011;49973;52.084;5.412;2023-04-08T03:51:11;188.83;;;21.37;;
61911;SDS011;49973;52.084;5.412;2023-04-08T03:53:39;234.07;;;23.10;;
61911;SDS011;49973;52.084;5.412;2023-04-08T03:56:08;305.57;;;25.47;;
61911;SDS011;49973;52.084;5.412;2023-04-08T03:58:37;222.03;;;22.77;;
61911;SDS011;49973;52.084;5.412;2023-04-08T04:01:05;180.77;;;20.60;;
61911;SDS011;49973;52.084;5.412;2023-04-08T04:03:34;116.17;;;16.83;;
61911;SDS011;49973;52.084;5.412;2023-04-08T04:06:03;212.97;;;22.70;;
61911;SDS011;49973;52.084;5.412;2023-04-08T04:08:32;144.67;;;21.20;;
61911;SDS011;49973;52.084;5.412;2023-04-08T04:11:01;163.00;;;18.20;;
61911;SDS011;49973;52.084;5.412;2023-04-08T04:13:30;197.73;;;21.03;;
61911;SDS011;49973;52.084;5.412;2023-04-08T04:15:58;150.30;;;20.03;;
61911;SDS011;49973;52.084;5.412;2023-04-08T04:18:27;161.53;;;18.03;;
61911;SDS011;49973;52.084;5.412;2023-04-08T04:20:56;147.87;;;21.50;;
61911;SDS011;49973;52.084;5.412;2023-04-08T04:23:24;225.53;;;22.80;;
61911;SDS011;49973;52.084;5.412;2023-04-08T04:25:54;127.67;;;20.40;;
61911;SDS011;49973;52.084;5.412;2023-04-08T04:28:23;155.57;;;21.43;;
61911;SDS011;49973;52.084;5.412;2023-04-08T04:30:51;120.43;;;23.30;;
61911;SDS011;49973;52.084;5.412;2023-04-08T04:33:22;49.57;;;16.90;;
61911;SDS011;49973;52.084;5.412;2023-04-08T04:35:51;80.77;;;18.20;;
61911;SDS011;49973;52.084;5.412;2023-04-08T04:38:20;44.73;;;16.77;;
61911;SDS011;49973;52.084;5.412;2023-04-08T04:40:48;36.60;;;13.93;;
61911;SDS011;49973;52.084;5.412;2023-04-08T04:43:18;50.97;;;16.77;;
61911;SDS011;49973;52.084;5.412;2023-04-08T04:45:47;63.67;;;16.70;;
61911;SDS011;49973;52.084;5.412;2023-04-08T04:48:15;254.77;;;25.20;;
61911;SDS011;49973;52.084;5.412;2023-04-08T04:50:44;112.70;;;19.23;;
61911;SDS011;49973;52.084;5.412;2023-04-08T04:53:21;98.23;;;16.03;;
61911;SDS011;49973;52.084;5.412;2023-04-08T04:55:50;108.57;;;18.63;;
61911;SDS011;49973;52.084;5.412;2023-04-08T04:58:20;153.20;;;20.87;;
61911;SDS011;49973;52.084;5.412;2023-04-08T05:00:48;81.83;;;17.20;;
61911;SDS011;49973;52.084;5.412;2023-04-08T05:03:17;103.77;;;19.80;;
61911;SDS011;49973;52.084;5.412;2023-04-08T05:05:49;138.63;;;19.30;;
61911;SDS011;49973;52.084;5.412;2023-04-08T05:08:19;128.47;;;17.83;;
61911;SDS011;49973;52.084;5.412;2023-04-08T05:10:48;90.63;;;18.27;;
61911;SDS011;49973;52.084;5.412;2023-04-08T05:13:17;95.93;;;15.50;;
61911;SDS011;49973;52.084;5.412;2023-04-08T05:15:47;183.53;;;19.30;;
61911;SDS011;49973;52.084;5.412;2023-04-08T05:18:15;182.73;;;21.13;;
61911;SDS011;49973;52.084;5.412;2023-04-08T05:20:44;79.50;;;16.93;;
61911;SDS011;49973;52.084;5.412;2023-04-08T05:23:13;85.80;;;15.87;;
61911;SDS011;49973;52.084;5.412;2023-04-08T05:25:41;132.30;;;19.27;;
61911;SDS011;49973;52.084;5.412;2023-04-08T05:28:10;188.87;;;20.73;;
61911;SDS011;49973;52.084;5.412;2023-04-08T05:30:38;207.50;;;22.90;;
61911;SDS011;49973;52.084;5.412;2023-04-08T05:33:09;154.07;;;20.57;;
61911;SDS011;49973;52.084;5.412;2023-04-08T05:35:37;138.57;;;17.90;;
61911;SDS011;49973;52.084;5.412;2023-04-08T05:38:06;126.17;;;17.47;;
61911;SDS011;49973;52.084;5.412;2023-04-08T05:40:34;120.23;;;16.90;;
61911;SDS011;49973;52.084;5.412;2023-04-08T05:43:03;205.40;;;20.40;;
61911;SDS011;49973;52.084;5.412;2023-04-08T05:45:31;290.20;;;29.43;;
61911;SDS011;49973;52.084;5.412;2023-04-08T05:48:00;310.20;;;27.33;;
61911;SDS011;49973;52.084;5.412;2023-04-08T05:50:30;117.40;;;17.43;;
61911;SDS011;49973;52.084;5.412;2023-04-08T05:52:58;92.27;;;16.77;;
61911;SDS011;49973;52.084;5.412;2023-04-08T05:55:27;173.40;;;20.80;;
61911;SDS011;49973;52.084;5.412;2023-04-08T05:57:56;57.37;;;15.27;;
61911;SDS011;49973;52.084;5.412;2023-04-08T06:00:24;88.63;;;15.57;;
61911;SDS011;49973;52.084;5.412;2023-04-08T06:02:53;94.53;;;14.80;;
61911;SDS011;49973;52.084;5.412;2023-04-08T06:05:22;50.97;;;13.63;;
61911;SDS011;49973;52.084;5.412;2023-04-08T06:07:51;42.00;;;12.40;;
61911;SDS011;49973;52.084;5.412;2023-04-08T06:10:20;69.53;;;12.83;;
61911;SDS011;49973;52.084;5.412;2023-04-08T06:12:49;21.07;;;11.20;;
61911;SDS011;49973;52.084;5.412;2023-04-08T06:15:18;21.93;;;11.60;;
61911;SDS011;49973;52.084;5.412;2023-04-08T06:17:47;17.73;;;10.17;;
61911;SDS011;49973;52.084;5.412;2023-04-08T06:20:15;19.20;;;10.13;;
61911;SDS011;49973;52.084;5.412;2023-04-08T06:22:44;17.50;;;9.87;;
61911;SDS011;49973;52.084;5.412;2023-04-08T06:25:14;16.50;;;10.53;;
61911;SDS011;49973;52.084;5.412;2023-04-08T06:27:42;16.43;;;9.23;;
61911;SDS011;49973;52.084;5.412;2023-04-08T06:30:11;13.17;;;8.40;;
61911;SDS011;49973;52.084;5.412;2023-04-08T06:32:40;12.67;;;7.93;;
61911;SDS011;49973;52.084;5.412;2023-04-08T06:35:08;12.93;;;8.47;;
61911;SDS011;49973;52.084;5.412;2023-04-08T06:37:37;15.87;;;8.67;;
61911;SDS011;49973;52.084;5.412;2023-04-08T06:40:06;10.93;;;7.43;;
61911;SDS011;49973;52.084;5.412;2023-04-08T06:42:36;14.90;;;8.73;;
61911;SDS011;49973;52.084;5.412;2023-04-08T06:45:16;14.17;;;9.37;;
61911;SDS011;49973;52.084;5.412;2023-04-08T06:47:45;17.23;;;11.17;;
61911;SDS011;49973;52.084;5.412;2023-04-08T06:50:14;12.40;;;8.60;;
61911;SDS011;49973;52.084;5.412;2023-04-08T06:52:42;10.87;;;7.30;;
61911;SDS011;49973;52.084;5.412;2023-04-08T06:55:11;12.03;;;7.37;;
61911;SDS011;49973;52.084;5.412;2023-04-08T06:57:41;10.53;;;6.33;;
61911;SDS011;49973;52.084;5.412;2023-04-08T07:00:10;9.13;;;6.40;;
61911;SDS011;49973;52.084;5.412;2023-04-08T07:02:39;9.17;;;6.40;;
61911;SDS011;49973;52.084;5.412;2023-04-08T07:05:08;9.60;;;6.27;;
61911;SDS011;49973;52.084;5.412;2023-04-08T07:07:37;10.23;;;6.33;;
61911;SDS011;49973;52.084;5.412;2023-04-08T07:10:06;10.07;;;5.93;;
61911;SDS011;49973;52.084;5.412;2023-04-08T07:12:37;10.83;;;6.70;;
61911;SDS011;49973;52.084;5.412;2023-04-08T07:15:07;12.30;;;7.63;;
61911;SDS011;49973;52.084;5.412;2023-04-08T07:17:37;12.00;;;7.53;;
61911;SDS011;49973;52.084;5.412;2023-04-08T07:20:06;9.43;;;6.93;;
61911;SDS011;49973;52.084;5.412;2023-04-08T07:22:35;12.30;;;6.63;;
61911;SDS011;49973;52.084;5.412;2023-04-08T07:25:04;11.53;;;6.97;;
61911;SDS011;49973;52.084;5.412;2023-04-08T07:27:33;8.77;;;6.63;;
61911;SDS011;49973;52.084;5.412;2023-04-08T07:30:02;10.97;;;6.13;;
61911;SDS011;49973;52.084;5.412;2023-04-08T07:32:33;6.43;;;4.93;;
61911;SDS011;49973;52.084;5.412;2023-04-08T07:35:02;6.83;;;5.40;;
61911;SDS011;49973;52.084;5.412;2023-04-08T07:37:32;7.63;;;5.30;;
61911;SDS011;49973;52.084;5.412;2023-04-08T07:40:00;8.13;;;5.53;;
61911;SDS011;49973;52.084;5.412;2023-04-08T07:42:29;7.87;;;5.03;;
61911;SDS011;49973;52.084;5.412;2023-04-08T07:44:57;6.50;;;4.97;;
61911;SDS011;49973;52.084;5.412;2023-04-08T07:47:26;6.50;;;4.37;;
61911;SDS011;49973;52.084;5.412;2023-04-08T07:49:56;6.63;;;5.20;;
61911;SDS011;49973;52.084;5.412;2023-04-08T07:52:25;6.50;;;4.63;;
61911;SDS011;49973;52.084;5.412;2023-04-08T07:54:54;6.83;;;4.63;;
61911;SDS011;49973;52.084;5.412;2023-04-08T07:57:23;7.90;;;5.27;;
61911;SDS011;49973;52.084;5.412;2023-04-08T08:00:01;8.10;;;4.93;;
61911;SDS011;49973;52.084;5.412;2023-04-08T08:02:41;5.00;;;3.90;;
61911;SDS011;49973;52.084;5.412;2023-04-08T08:05:16;10.77;;;4.63;;
61911;SDS011;49973;52.084;5.412;2023-04-08T08:07:45;8.00;;;5.77;;
61911;SDS011;49973;52.084;5.412;2023-04-08T08:10:20;6.37;;;5.00;;
61911;SDS011;49973;52.084;5.412;2023-04-08T08:12:58;6.27;;;5.03;;
61911;SDS011;49973;52.084;5.412;2023-04-08T08:15:26;8.30;;;5.60;;
61911;SDS011;49973;52.084;5.412;2023-04-08T08:17:55;8.67;;;5.10;;
61911;SDS011;49973;52.084;5.412;2023-04-08T08:20:25;7.13;;;5.00;;
61911;SDS011;49973;52.084;5.412;2023-04-08T08:22:54;7.20;;;5.07;;
61911;SDS011;49973;52.084;5.412;2023-04-08T08:25:23;8.53;;;5.77;;
61911;SDS011;49973;52.084;5.412;2023-04-08T08:27:52;7.00;;;5.20;;
61911;SDS011;49973;52.084;5.412;2023-04-08T08:30:21;7.77;;;5.43;;
61911;SDS011;49973;52.084;5.412;2023-04-08T08:32:50;7.50;;;5.20;;
61911;SDS011;49973;52.084;5.412;2023-04-08T08:35:19;8.47;;;5.43;;
61911;SDS011;49973;52.084;5.412;2023-04-08T08:37:49;11.13;;;5.80;;
61911;SDS011;49973;52.084;5.412;2023-04-08T08:40:18;7.93;;;5.97;;
61911;SDS011;49973;52.084;5.412;2023-04-08T08:42:50;13.20;;;5.90;;
61911;SDS011;49973;52.084;5.412;2023-04-08T08:45:20;8.33;;;5.10;;
61911;SDS011;49973;52.084;5.412;2023-04-08T08:47:48;7.33;;;5.33;;
61911;SDS011;49973;52.084;5.412;2023-04-08T08:50:18;7.83;;;5.47;;
61911;SDS011;49973;52.084;5.412;2023-04-08T08:52:48;8.77;;;5.40;;
61911;SDS011;49973;52.084;5.412;2023-04-08T08:55:18;8.80;;;5.30;;
61911;SDS011;49973;52.084;5.412;2023-04-08T08:58:08;8.63;;;5.17;;
61911;SDS011;49973;52.084;5.412;2023-04-08T09:00:37;10.67;;;6.10;;
61911;SDS011;49973;52.084;5.412;2023-04-08T09:03:14;6.73;;;5.30;;
61911;SDS011;49973;52.084;5.412;2023-04-08T09:05:47;8.20;;;6.10;;
61911;SDS011;49973;52.084;5.412;2023-04-08T09:08:26;8.63;;;5.87;;
61911;SDS011;49973;52.084;5.412;2023-04-08T09:11:09;7.10;;;5.47;;
61911;SDS011;49973;52.084;5.412;2023-04-08T09:13:39;7.83;;;5.40;;
61911;SDS011;49973;52.084;5.412;2023-04-08T09:16:09;7.33;;;5.93;;
61911;SDS011;49973;52.084;5.412;2023-04-08T09:18:40;7.73;;;6.00;;
61911;SDS011;49973;52.084;5.412;2023-04-08T09:21:11;10.07;;;6.07;;
61911;SDS011;49973;52.084;5.412;2023-04-08T09:23:43;8.13;;;5.87;;
61911;SDS011;49973;52.084;5.412;2023-04-08T09:26:13;7.13;;;6.27;;
61911;SDS011;49973;52.084;5.412;2023-04-08T09:28:43;11.53;;;6.77;;
61911;SDS011;49973;52.084;5.412;2023-04-08T09:31:27;8.37;;;5.73;;
61911;SDS011;49973;52.084;5.412;2023-04-08T09:33:58;10.03;;;6.40;;
61911;SDS011;49973;52.084;5.412;2023-04-08T09:36:28;9.03;;;5.77;;
61911;SDS011;49973;52.084;5.412;2023-04-08T09:38:58;7.43;;;6.10;;
61911;SDS011;49973;52.084;5.412;2023-04-08T09:41:27;8.93;;;6.27;;
61911;SDS011;49973;52.084;5.412;2023-04-08T09:43:56;8.63;;;5.67;;
61911;SDS011;49973;52.084;5.412;2023-04-08T09:46:28;7.07;;;5.53;;
61911;SDS011;49973;52.084;5.412;2023-04-08T09:49:02;11.27;;;7.13;;
61911;SDS011;49973;52.084;5.412;2023-04-08T09:51:35;10.37;;;6.67;;
61911;SDS011;49973;52.084;5.412;2023-04-08T09:54:11;10.13;;;6.70;;
61911;SDS011;49973;52.084;5.412;2023-04-08T09:56:43;11.17;;;6.50;;
61911;SDS011;49973;52.084;5.412;2023-04-08T09:59:18;8.67;;;6.40;;
61911;SDS011;49973;52.084;5.412;2023-04-08T10:01:51;9.60;;;6.10;;
61911;SDS011;49973;52.084;5.412;2023-04-08T10:04:23;10.07;;;6.53;;
61911;SDS011;49973;52.084;5.412;2023-04-08T10:06:56;9.17;;;6.17;;
61911;SDS011;49973;52.084;5.412;2023-04-08T10:09:29;12.17;;;6.53;;
61911;SDS011;49973;52.084;5.412;2023-04-08T10:11:59;11.50;;;6.50;;
61911;SDS011;49973;52.084;5.412;2023-04-08T10:14:29;9.37;;;6.37;;
61911;SDS011;49973;52.084;5.412;2023-04-08T10:19:53;11.73;;;6.37;;
61911;SDS011;49973;52.084;5.412;2023-04-08T10:25:30;8.40;;;6.30;;
61911;SDS011;49973;52.084;5.412;2023-04-08T10:27:59;8.17;;;5.57;;
61911;SDS011;49973;52.084;5.412;2023-04-08T10:30:39;8.27;;;5.67;;
61911;SDS011;49973;52.084;5.412;2023-04-08T10:33:12;7.83;;;5.67;;
61911;SDS011;49973;52.084;5.412;2023-04-08T10:35:44;9.73;;;6.13;;
61911;SDS011;49973;52.084;5.412;2023-04-08T10:38:18;10.47;;;6.30;;
61911;SDS011;49973;52.084;5.412;2023-04-08T10:40:49;8.97;;;5.83;;
61911;SDS011;49973;52.084;5.412;2023-04-08T10:43:20;8.57;;;5.53;;
61911;SDS011;49973;52.084;5.412;2023-04-08T10:45:50;9.33;;;5.80;;
61911;SDS011;49973;52.084;5.412;2023-04-08T10:48:21;7.63;;;5.83;;
61911;SDS011;49973;52.084;5.412;2023-04-08T10:50:51;10.43;;;5.70;;
61911;SDS011;49973;52.084;5.412;2023-04-08T10:53:25;8.00;;;5.77;;
61911;SDS011;49973;52.084;5.412;2023-04-08T10:56:03;9.20;;;5.90;;
61911;SDS011;49973;52.084;5.412;2023-04-08T10:58:33;9.83;;;5.53;;
61911;SDS011;49973;52.084;5.412;2023-04-08T11:01:03;10.13;;;6.30;;
61911;SDS011;49973;52.084;5.412;2023-04-08T11:03:34;12.60;;;5.53;;
61911;SDS011;49973;52.084;5.412;2023-04-08T11:06:04;5.17;;;4.60;;
61911;SDS011;49973;52.084;5.412;2023-04-08T11:08:33;8.27;;;5.77;;
61911;SDS011;49973;52.084;5.412;2023-04-08T11:11:05;7.90;;;5.53;;
61911;SDS011;49973;52.084;5.412;2023-04-08T11:13:38;9.20;;;5.33;;
61911;SDS011;49973;52.084;5.412;2023-04-08T11:16:18;9.17;;;5.50;;
61911;SDS011;49973;52.084;5.412;2023-04-08T11:18:49;10.67;;;5.30;;
61911;SDS011;49973;52.084;5.412;2023-04-08T11:21:18;9.40;;;5.87;;
61911;SDS011;49973;52.084;5.412;2023-04-08T11:23:48;10.23;;;5.47;;
61911;SDS011;49973;52.084;5.412;2023-04-08T11:26:19;9.50;;;5.10;;
61911;SDS011;49973;52.084;5.412;2023-04-08T11:28:48;9.80;;;5.83;;
61911;SDS011;49973;52.084;5.412;2023-04-08T11:31:17;9.03;;;5.53;;
61911;SDS011;49973;52.084;5.412;2023-04-08T11:33:51;15.40;;;5.63;;
61911;SDS011;49973;52.084;5.412;2023-04-08T11:36:22;10.00;;;5.70;;
61911;SDS011;49973;52.084;5.412;2023-04-08T11:38:52;8.50;;;5.20;;
61911;SDS011;49973;52.084;5.412;2023-04-08T11:41:23;9.83;;;5.27;;
61911;SDS011;49973;52.084;5.412;2023-04-08T11:43:53;13.90;;;6.40;;
61911;SDS011;49973;52.084;5.412;2023-04-08T11:46:50;8.40;;;5.40;;
61911;SDS011;49973;52.084;5.412;2023-04-08T11:49:43;8.80;;;5.10;;
61911;SDS011;49973;52.084;5.412;2023-04-08T11:52:16;10.37;;;5.40;;
61911;SDS011;49973;52.084;5.412;2023-04-08T11:54:53;8.77;;;4.50;;
61911;SDS011;49973;52.084;5.412;2023-04-08T11:57:29;9.97;;;5.23;;
61911;SDS011;49973;52.084;5.412;2023-04-08T11:59:58;9.60;;;4.43;;
61911;SDS011;49973;52.084;5.412;2023-04-08T12:02:27;7.87;;;4.60;;
61911;SDS011;49973;52.084;5.412;2023-04-08T12:04:56;8.37;;;5.00;;
61911;SDS011;49973;52.084;5.412;2023-04-08T12:07:24;8.00;;;4.60;;
61911;SDS011;49973;52.084;5.412;2023-04-08T12:09:53;8.63;;;4.97;;
61911;SDS011;49973;52.084;5.412;2023-04-08T12:12:22;11.17;;;4.93;;
61911;SDS011;49973;52.084;5.412;2023-04-08T12:14:52;9.63;;;4.93;;
61911;SDS011;49973;52.084;5.412;2023-04-08T12:17:21;10.23;;;5.20;;
61911;SDS011;49973;52.084;5.412;2023-04-08T12:19:50;10.30;;;4.80;;
61911;SDS011;49973;52.084;5.412;2023-04-08T12:22:19;7.40;;;4.53;;
61911;SDS011;49973;52.084;5.412;2023-04-08T12:24:47;5.53;;;3.80;;
61911;SDS011;49973;52.084;5.412;2023-04-08T12:27:16;8.07;;;4.27;;
61911;SDS011;49973;52.084;5.412;2023-04-08T12:29:45;6.37;;;3.90;;
61911;SDS011;49973;52.084;5.412;2023-04-08T12:32:17;8.53;;;4.60;;
61911;SDS011;49973;52.084;5.412;2023-04-08T12:34:45;7.00;;;3.67;;
61911;SDS011;49973;52.084;5.412;2023-04-08T12:37:14;6.93;;;3.80;;
61911;SDS011;49973;52.084;5.412;2023-04-08T12:39:43;6.37;;;3.03;;
61911;SDS011;49973;52.084;5.412;2023-04-08T12:42:12;7.53;;;3.57;;
61911;SDS011;49973;52.084;5.412;2023-04-08T12:44:40;6.83;;;3.93;;
61911;SDS011;49973;52.084;5.412;2023-04-08T12:47:09;8.23;;;4.20;;
61911;SDS011;49973;52.084;5.412;2023-04-08T12:49:39;8.13;;;4.07;;
61911;SDS011;49973;52.084;5.412;2023-04-08T12:52:15;9.60;;;4.17;;
61911;SDS011;49973;52.084;5.412;2023-04-08T12:54:44;7.97;;;4.60;;
61911;SDS011;49973;52.084;5.412;2023-04-08T12:57:16;4.53;;;3.43;;
61911;SDS011;49973;52.084;5.412;2023-04-08T12:59:47;6.43;;;3.73;;
61911;SDS011;49973;52.084;5.412;2023-04-08T13:02:37;6.60;;;3.53;;
61911;SDS011;49973;52.084;5.412;2023-04-08T13:05:16;5.33;;;2.90;;
61911;SDS011;49973;52.084;5.412;2023-04-08T13:07:59;5.57;;;3.27;;
61911;SDS011;49973;52.084;5.412;2023-04-08T13:10:28;6.33;;;3.43;;
61911;SDS011;49973;52.084;5.412;2023-04-08T13:13:03;5.60;;;3.53;;
61911;SDS011;49973;52.084;5.412;2023-04-08T13:15:49;5.40;;;3.20;;
61911;SDS011;49973;52.084;5.412;2023-04-08T13:18:18;5.43;;;3.37;;
61911;SDS011;49973;52.084;5.412;2023-04-08T13:20:47;8.23;;;4.47;;
61911;SDS011;49973;52.084;5.412;2023-04-08T13:23:16;6.30;;;4.33;;
61911;SDS011;49973;52.084;5.412;2023-04-08T13:25:45;5.60;;;3.53;;
61911;SDS011;49973;52.084;5.412;2023-04-08T13:28:14;3.87;;;3.07;;
61911;SDS011;49973;52.084;5.412;2023-04-08T13:30:43;4.87;;;3.20;;
61911;SDS011;49973;52.084;5.412;2023-04-08T13:33:12;4.33;;;2.77;;
61911;SDS011;49973;52.084;5.412;2023-04-08T13:35:40;4.93;;;3.90;;
61911;SDS011;49973;52.084;5.412;2023-04-08T13:38:11;5.40;;;3.80;;
61911;SDS011;49973;52.084;5.412;2023-04-08T13:40:40;5.00;;;4.00;;
61911;SDS011;49973;52.084;5.412;2023-04-08T13:43:09;4.77;;;3.63;;
61911;SDS011;49973;52.084;5.412;2023-04-08T13:45:38;5.20;;;4.00;;
61911;SDS011;49973;52.084;5.412;2023-04-08T13:48:07;8.40;;;4.37;;
61911;SDS011;49973;52.084;5.412;2023-04-08T13:50:36;5.97;;;3.60;;
61911;SDS011;49973;52.084;5.412;2023-04-08T13:53:06;5.03;;;3.43;;
61911;SDS011;49973;52.084;5.412;2023-04-08T13:55:36;5.17;;;3.50;;
61911;SDS011;49973;52.084;5.412;2023-04-08T13:58:04;6.67;;;4.50;;
61911;SDS011;49973;52.084;5.412;2023-04-08T14:00:49;5.57;;;3.70;;
61911;SDS011;49973;52.084;5.412;2023-04-08T14:03:18;6.67;;;4.23;;
61911;SDS011;49973;52.084;5.412;2023-04-08T14:05:47;8.30;;;4.33;;
61911;SDS011;49973;52.084;5.412;2023-04-08T14:08:17;6.63;;;4.23;;
61911;SDS011;49973;52.084;5.412;2023-04-08T14:10:54;6.73;;;4.20;;
61911;SDS011;49973;52.084;5.412;2023-04-08T14:13:25;5.70;;;3.97;;
61911;SDS011;49973;52.084;5.412;2023-04-08T14:15:55;7.50;;;4.50;;
61911;SDS011;49973;52.084;5.412;2023-04-08T14:18:24;5.73;;;3.80;;
61911;SDS011;49973;52.084;5.412;2023-04-08T14:20:53;5.93;;;3.87;;
61911;SDS011;49973;52.084;5.412;2023-04-08T14:23:22;6.03;;;4.00;;
61911;SDS011;49973;52.084;5.412;2023-04-08T14:25:52;6.00;;;4.07;;
61911;SDS011;49973;52.084;5.412;2023-04-08T14:28:21;6.13;;;4.37;;
61911;SDS011;49973;52.084;5.412;2023-04-08T14:30:49;4.60;;;3.53;;
61911;SDS011;49973;52.084;5.412;2023-04-08T14:33:18;4.53;;;3.77;;
61911;SDS011;49973;52.084;5.412;2023-04-08T14:35:47;4.97;;;3.77;;
61911;SDS011;49973;52.084;5.412;2023-04-08T14:38:15;6.77;;;4.17;;
61911;SDS011;49973;52.084;5.412;2023-04-08T14:40:46;5.60;;;3.90;;
61911;SDS011;49973;52.084;5.412;2023-04-08T14:43:25;6.70;;;4.33;;
61911;SDS011;49973;52.084;5.412;2023-04-08T14:45:57;7.00;;;4.50;;
61911;SDS011;49973;52.084;5.412;2023-04-08T14:48:27;8.63;;;4.63;;
61911;SDS011;49973;52.084;5.412;2023-04-08T14:50:56;6.33;;;4.17;;
61911;SDS011;49973;52.084;5.412;2023-04-08T14:53:26;7.30;;;4.53;;
61911;SDS011;49973;52.084;5.412;2023-04-08T14:55:58;6.07;;;4.43;;